Time;durP1;ratioP1;P1;durP2;ratioP2;P2;SDS_P1;SDS_P2;PMS_P1;PMS_P2;Temp;Humidity;BMP_temperature;BMP_pressure;BME280_temperature;BME280_humidity;BME280_pressure;Samples;Min_cycle;Max_cycle;Signal;HPM_P1;HPM_P2
2022/04/05 00:01:26;;;;;;;0.40;0.40;;;;;;;;;;5036416;28;20600;-74
2022/04/05 00:03:53;;;;;;;0.40;0.40;;;;;;;;;;5037052;28;20077;-74
2022/04/05 00:06:19;;;;;;;0.50;0.50;;;;;;;;;;5036865;28;20540;-74
2022/04/05 00:08:46;;;;;;;0.77;0.77;;;;;;;;;;5033609;28;20327;-74
2022/04/05 00:11:12;;;;;;;0.75;0.52;;;;;;;;;;5037460;28;20077;-74
2022/04/05 00:13:39;;;;;;;0.75;0.73;;;;;;;;;;5035663;28;20044;-74
2022/04/05 00:16:05;;;;;;;1.40;0.40;;;;;;;;;;5035320;28;20069;-73
2022/04/05 00:18:33;;;;;;;0.55;0.55;;;;;;;;;;5034735;28;20072;-74
2022/04/05 00:21:00;;;;;;;0.50;0.50;;;;;;;;;;5035731;28;20135;-74
2022/04/05 00:23:26;;;;;;;0.47;0.45;;;;;;;;;;5035150;28;20052;-73
2022/04/05 00:25:53;;;;;;;0.40;0.40;;;;;;;;;;5036424;28;20163;-73
2022/04/05 00:28:20;;;;;;;0.60;0.53;;;;;;;;;;5037536;28;20073;-73
2022/04/05 00:30:47;;;;;;;0.63;0.63;;;;;;;;;;5038605;28;20299;-73
2022/04/05 00:33:13;;;;;;;0.55;0.45;;;;;;;;;;5036559;28;20112;-73
2022/04/05 00:35:47;;;;;;;0.60;0.60;;;;;;;;;;5039850;28;20172;-73
2022/04/05 00:38:14;;;;;;;0.68;0.55;;;;;;;;;;5039068;28;20156;-72
2022/04/05 00:40:40;;;;;;;0.60;0.60;;;;;;;;;;5039150;28;20103;-72
2022/04/05 00:43:06;;;;;;;0.70;0.70;;;;;;;;;;5040209;28;20144;-72
2022/04/05 00:45:34;;;;;;;0.68;0.68;;;;;;;;;;5043099;28;20072;-71
2022/04/05 00:48:02;;;;;;;1.08;0.68;;;;;;;;;;5043832;28;20694;-71
2022/04/05 00:50:31;;;;;;;0.65;0.65;;;;;;;;;;5041558;28;20045;-71
2022/04/05 00:53:00;;;;;;;2.90;1.00;;;;;;;;;;5042996;28;20202;-71
2022/04/05 00:55:28;;;;;;;0.70;0.70;;;;;;;;;;5038687;28;20156;-70
2022/04/05 00:57:54;;;;;;;;;;;;;;;;;;5040680;28;20136;-70
2022/04/05 01:00:21;;;;;;;0.70;0.70;;;;;;;;;;5039518;28;20434;-70
2022/04/05 01:02:50;;;;;;;1.50;0.80;;;;;;;;;;5041497;28;20099;-71
2022/04/05 01:05:18;;;;;;;0.98;0.65;;;;;;;;;;5039403;28;20080;-70
2022/04/05 01:07:45;;;;;;;2.45;1.13;;;;;;;;;;5041801;28;20132;-70
2022/04/05 01:10:20;;;;;;;1.67;1.27;;;;;;;;;;5038473;28;20488;-70
2022/04/05 01:12:49;;;;;;;1.95;0.90;;;;;;;;;;5043472;28;20073;-69
2022/04/05 01:15:15;;;;;;;1.10;1.00;;;;;;;;;;5040178;28;20103;-69
2022/04/05 01:17:42;;;;;;;1.83;1.00;;;;;;;;;;5041707;28;20173;-69
2022/04/05 01:20:08;;;;;;;0.73;0.73;;;;;;;;;;5036441;28;20076;-69
2022/04/05 01:22:35;;;;;;;2.50;0.80;;;;;;;;;;5039434;28;20420;-69
2022/04/05 01:25:02;;;;;;;1.77;1.10;;;;;;;;;;5042249;28;20375;-69
2022/04/05 01:27:29;;;;;;;0.60;0.60;;;;;;;;;;5045398;28;20056;-69
2022/04/05 01:29:55;;;;;;;1.75;0.98;;;;;;;;;;5040725;28;20556;-68
2022/04/05 01:32:22;;;;;;;1.45;0.88;;;;;;;;;;5037772;28;20049;-68
2022/04/05 01:34:55;;;;;;;1.45;1.20;;;;;;;;;;5040615;28;20163;-68
2022/04/05 01:37:22;;;;;;;1.15;0.90;;;;;;;;;;5039554;28;20050;-68
2022/04/05 01:39:48;;;;;;;2.28;1.00;;;;;;;;;;5039646;28;20080;-68
2022/04/05 01:42:16;;;;;;;2.10;0.97;;;;;;;;;;5039019;28;20183;-68
2022/04/05 01:44:43;;;;;;;1.80;1.17;;;;;;;;;;5037530;28;20579;-68
2022/04/05 01:47:14;;;;;;;2.20;0.85;;;;;;;;;;5042227;28;20139;-68
2022/04/05 01:49:41;;;;;;;1.10;1.00;;;;;;;;;;5057122;28;20175;-68
2022/04/05 01:52:09;;;;;;;1.25;1.08;;;;;;;;;;5056384;28;20064;-70
2022/04/05 01:54:36;;;;;;;1.50;1.15;;;;;;;;;;5056921;28;20052;-67
2022/04/05 01:57:03;;;;;;;3.75;1.27;;;;;;;;;;5036824;28;20136;-68
2022/04/05 01:59:30;;;;;;;1.42;1.20;;;;;;;;;;5060824;28;20840;-68
2022/04/05 02:02:02;;;;;;;2.20;0.90;;;;;;;;;;5057570;28;20045;-68
2022/04/05 02:04:29;;;;;;;0.80;0.80;;;;;;;;;;5059065;28;20083;-67
2022/04/05 02:06:55;;;;;;;1.17;1.05;;;;;;;;;;5059874;28;20127;-68
2022/04/05 02:09:22;;;;;;;1.23;1.05;;;;;;;;;;5062425;28;20468;-68
2022/04/05 02:11:53;;;;;;;1.40;0.88;;;;;;;;;;5059062;28;20495;-68
2022/04/05 02:14:19;;;;;;;2.58;1.00;;;;;;;;;;5055743;28;20072;-67
2022/04/05 02:16:46;;;;;;;2.67;1.13;;;;;;;;;;5059748;28;20102;-68
2022/04/05 02:19:13;;;;;;;3.25;1.90;;;;;;;;;;5058647;28;20052;-68
2022/04/05 02:21:45;;;;;;;1.15;0.98;;;;;;;;;;5058647;28;20127;-68
2022/04/05 02:24:11;;;;;;;2.22;1.40;;;;;;;;;;5059783;28;20561;-67
2022/04/05 02:26:38;;;;;;;2.13;1.38;;;;;;;;;;5053830;28;20049;-68
2022/04/05 02:29:10;;;;;;;1.52;1.10;;;;;;;;;;5057423;28;20135;-68
2022/04/05 02:31:37;;;;;;;2.33;1.40;;;;;;;;;;5061751;28;20127;-68
2022/04/05 02:34:04;;;;;;;1.75;1.02;;;;;;;;;;5059847;28;20045;-67
2022/04/05 02:36:30;;;;;;;2.30;1.05;;;;;;;;;;5059168;28;20076;-67
2022/04/05 02:38:57;;;;;;;2.40;1.17;;;;;;;;;;5060372;28;20127;-67
2022/04/05 02:41:23;;;;;;;2.10;1.23;;;;;;;;;;5058806;28;20144;-68
2022/04/05 02:43:58;;;;;;;1.20;1.10;;;;;;;;;;5058766;28;20041;-67
2022/04/05 02:46:25;;;;;;;1.65;1.20;;;;;;;;;;5062276;28;20080;-67
2022/04/05 02:48:54;;;;;;;4.15;1.42;;;;;;;;;;5058472;28;20067;-67
2022/04/05 02:51:21;;;;;;;2.13;1.52;;;;;;;;;;5057722;28;20049;-67
2022/04/05 02:53:48;;;;;;;2.63;1.30;;;;;;;;;;5059005;28;20131;-67
2022/04/05 02:56:15;;;;;;;3.38;1.20;;;;;;;;;;5060237;28;20694;-67
2022/04/05 02:58:43;;;;;;;1.75;1.42;;;;;;;;;;5061993;28;20123;-67
2022/04/05 03:01:10;;;;;;;1.80;1.13;;;;;;;;;;5056065;28;20052;-67
2022/04/05 03:03:36;;;;;;;2.53;1.30;;;;;;;;;;5059410;28;20159;-67
2022/04/05 03:06:10;;;;;;;1.33;1.00;;;;;;;;;;5061503;28;20092;-67
2022/04/05 03:08:37;;;;;;;4.05;1.40;;;;;;;;;;5060347;28;20080;-67
2022/04/05 03:11:03;;;;;;;2.58;1.25;;;;;;;;;;5059844;28;20151;-67
2022/04/05 03:13:31;;;;;;;4.72;1.17;;;;;;;;;;5057097;28;20072;-67
2022/04/05 03:15:57;;;;;;;;;;;;;;;;;;5055093;28;20525;-67
2022/04/05 03:18:24;;;;;;;2.97;1.23;;;;;;;;;;5054261;28;19943;-67
2022/04/05 03:20:52;;;;;;;;;;;;;;;;;;5056106;28;20080;-67
2022/04/05 03:23:20;;;;;;;2.65;1.65;;;;;;;;;;5055032;28;19968;-67
2022/04/05 03:25:48;;;;;;;2.40;1.20;;;;;;;;;;5060921;28;20052;-67
2022/04/05 03:28:14;;;;;;;;;;;;;;;;;;5059139;28;20091;-66
2022/04/05 03:30:42;;;;;;;3.30;1.10;;;;;;;;;;5062166;28;20007;-67
2022/04/05 03:33:16;;;;;;;1.70;1.17;;;;;;;;;;5059323;28;20100;-67
2022/04/05 03:35:42;;;;;;;2.47;0.90;;;;;;;;;;5057933;28;20135;-67
2022/04/05 03:38:09;;;;;;;3.83;1.27;;;;;;;;;;5055581;28;20072;-67
2022/04/05 03:40:37;;;;;;;3.60;1.50;;;;;;;;;;5054868;28;20143;-66
2022/04/05 03:43:05;;;;;;;1.80;1.40;;;;;;;;;;5053021;28;20136;-66
2022/04/05 03:45:32;;;;;;;2.30;1.35;;;;;;;;;;5034639;28;20084;-66
2022/04/05 03:48:12;;;;;;;2.42;1.30;;;;;;;;;;5045084;28;20476;-67
2022/04/05 03:50:45;;;;;;;1.08;0.98;;;;;;;;;;5038682;28;20099;-67
2022/04/05 03:53:12;;;;;;;1.88;1.27;;;;;;;;;;5039882;28;20512;-67
2022/04/05 03:55:38;;;;;;;3.63;1.17;;;;;;;;;;5037295;28;20140;-66
2022/04/05 03:58:05;;;;;;;1.40;1.30;;;;;;;;;;5041179;28;20081;-66
2022/04/05 04:00:31;;;;;;;1.30;1.20;;;;;;;;;;5037896;28;20572;-66
2022/04/05 04:02:58;;;;;;;3.67;1.37;;;;;;;;;;5037162;28;20084;-66
2022/04/05 04:05:25;;;;;;;1.33;1.23;;;;;;;;;;5043091;28;20544;-66
2022/04/05 04:07:56;;;;;;;1.40;1.30;;;;;;;;;;5038445;28;20092;-66
2022/04/05 04:10:22;;;;;;;3.28;1.20;;;;;;;;;;5034684;28;20553;-66
2022/04/05 04:12:50;;;;;;;4.57;1.40;;;;;;;;;;5032479;28;20057;-66
2022/04/05 04:15:17;;;;;;;1.60;1.20;;;;;;;;;;5045408;28;20063;-66
2022/04/05 04:17:43;;;;;;;4.35;1.05;;;;;;;;;;5022444;28;20124;-66
2022/04/05 04:20:10;;;;;;;3.63;1.37;;;;;;;;;;5044879;28;20076;-66
2022/04/05 04:22:36;;;;;;;2.03;1.40;;;;;;;;;;5039149;28;20319;-66
2022/04/05 04:25:10;;;;;;;1.52;1.30;;;;;;;;;;5040683;28;20080;-66
2022/04/05 04:27:36;;;;;;;4.70;2.33;;;;;;;;;;5038268;28;20140;-66
2022/04/05 04:30:04;;;;;;;1.50;1.30;;;;;;;;;;5040522;28;20129;-66
2022/04/05 04:32:36;;;;;;;2.47;1.30;;;;;;;;;;5042487;28;20100;-66
2022/04/05 04:35:03;;;;;;;2.55;1.20;;;;;;;;;;5041140;28;20132;-66
2022/04/05 04:37:30;;;;;;;2.90;1.00;;;;;;;;;;5040685;28;20096;-66
2022/04/05 04:39:56;;;;;;;1.13;1.02;;;;;;;;;;5043772;28;20084;-66
2022/04/05 04:42:23;;;;;;;2.07;1.23;;;;;;;;;;5043825;28;20049;-65
2022/04/05 04:44:49;;;;;;;2.72;1.20;;;;;;;;;;5040128;28;20181;-66
2022/04/05 04:47:22;;;;;;;3.35;1.02;;;;;;;;;;5044676;28;20140;-66
2022/04/05 04:49:49;;;;;;;1.58;1.25;;;;;;;;;;5058189;28;20155;-66
2022/04/05 04:52:20;;;;;;;2.17;1.15;;;;;;;;;;5058363;28;20248;-65
2022/04/05 04:54:47;;;;;;;1.70;1.20;;;;;;;;;;5056414;28;20624;-66
2022/04/05 04:57:14;;;;;;;6.80;1.37;;;;;;;;;;5059882;28;20135;-66
2022/04/05 04:59:40;;;;;;;5.03;1.27;;;;;;;;;;5061168;28;20056;-66
2022/04/05 05:02:07;;;;;;;1.57;1.43;;;;;;;;;;5062028;28;20287;-66
2022/04/05 05:04:33;;;;;;;1.43;1.10;;;;;;;;;;5059650;28;20099;-65
2022/04/05 05:07:14;;;;;;;4.15;1.42;;;;;;;;;;5063162;28;20287;-66
2022/04/05 05:09:41;;;;;;;2.20;1.15;;;;;;;;;;5059661;28;20091;-66
2022/04/05 05:12:14;;;;;;;2.10;1.08;;;;;;;;;;5058011;28;20044;-66
2022/04/05 05:14:40;;;;;;;0.90;0.80;;;;;;;;;;5054982;28;20132;-66
2022/04/05 05:17:07;;;;;;;2.05;1.23;;;;;;;;;;5056268;28;20084;-66
2022/04/05 05:19:40;;;;;;;2.22;1.05;;;;;;;;;;5062928;28;20091;-68
2022/04/05 05:22:06;;;;;;;1.83;1.23;;;;;;;;;;5060006;28;20087;-66
2022/04/05 05:24:33;;;;;;;4.05;1.85;;;;;;;;;;5060723;28;20091;-66
2022/04/05 05:27:00;;;;;;;;;;;;;;;;;;5062093;28;20092;-66
2022/04/05 05:29:26;;;;;;;2.70;1.00;;;;;;;;;;5060946;28;20380;-66
2022/04/05 05:31:53;;;;;;;3.20;1.00;;;;;;;;;;5061369;28;20483;-66
2022/04/05 05:34:23;;;;;;;2.22;1.38;;;;;;;;;;5064205;28;20088;-67
2022/04/05 05:36:49;;;;;;;;;;;;;;;;;;5059290;28;20139;-66
2022/04/05 05:39:16;;;;;;;0.80;0.80;;;;;;;;;;5061290;28;19964;-66
2022/04/05 05:41:44;;;;;;;3.05;1.27;;;;;;;;;;5059576;28;20108;-66
2022/04/05 05:44:11;;;;;;;2.67;1.50;;;;;;;;;;5060931;28;20094;-67
2022/04/05 05:46:38;;;;;;;1.90;1.30;;;;;;;;;;5065770;28;20167;-67
2022/04/05 05:49:04;;;;;;;8.07;1.75;;;;;;;;;;5059805;28;20084;-66
2022/04/05 05:51:31;;;;;;;3.78;1.30;;;;;;;;;;5059924;28;20086;-67
2022/04/05 05:53:58;;;;;;;1.10;0.93;;;;;;;;;;5063196;28;20152;-67
2022/04/05 05:56:24;;;;;;;1.40;0.70;;;;;;;;;;5058987;28;20752;-67
2022/04/05 05:58:51;;;;;;;2.75;1.20;;;;;;;;;;5062635;28;20132;-68
2022/04/05 06:01:20;;;;;;;3.03;0.95;;;;;;;;;;5053377;28;20107;-67
2022/04/05 06:03:47;;;;;;;1.80;1.08;;;;;;;;;;5062337;28;20049;-68
2022/04/05 06:06:13;;;;;;;1.33;1.20;;;;;;;;;;5058642;28;20056;-68
2022/04/05 06:08:42;;;;;;;2.90;1.30;;;;;;;;;;5057750;28;20052;-68
2022/04/05 06:11:10;;;;;;;2.97;1.20;;;;;;;;;;5062142;28;20188;-69
2022/04/05 06:13:37;;;;;;;3.28;1.45;;;;;;;;;;5062703;28;20736;-68
2022/04/05 06:16:09;;;;;;;1.73;1.10;;;;;;;;;;5058560;28;20140;-68
2022/04/05 06:18:37;;;;;;;1.50;0.87;;;;;;;;;;5056108;28;20079;-68
2022/04/05 06:21:03;;;;;;;1.98;0.80;;;;;;;;;;5055472;28;20048;-67
2022/04/05 06:23:30;;;;;;;4.78;0.90;;;;;;;;;;5038740;28;20049;-67
2022/04/05 06:25:59;;;;;;;2.55;1.10;;;;;;;;;;5053806;28;20084;-67
2022/04/05 06:28:25;;;;;;;3.75;2.03;;;;;;;;;;5056139;28;20131;-66
2022/04/05 06:30:54;;;;;;;1.58;1.10;;;;;;;;;;5056633;28;20603;-67
2022/04/05 06:33:24;;;;;;;2.97;0.80;;;;;;;;;;5056475;28;20120;-67
2022/04/05 06:35:52;;;;;;;2.08;1.08;;;;;;;;;;5055057;28;20048;-68
2022/04/05 06:38:19;;;;;;;1.90;0.95;;;;;;;;;;5054353;28;20140;-68
2022/04/05 06:40:46;;;;;;;0.93;0.90;;;;;;;;;;5056016;28;20471;-68
2022/04/05 06:43:14;;;;;;;3.22;1.20;;;;;;;;;;5055691;28;20350;-69
2022/04/05 06:45:42;;;;;;;3.20;1.20;;;;;;;;;;5055202;28;20163;-69
2022/04/05 06:48:09;;;;;;;3.58;0.82;;;;;;;;;;5055530;28;20064;-69
2022/04/05 06:50:36;;;;;;;2.58;1.10;;;;;;;;;;5054315;28;20048;-69
2022/04/05 06:53:03;;;;;;;2.47;1.08;;;;;;;;;;5053804;28;20317;-69
2022/04/05 06:55:30;;;;;;;2.35;1.00;;;;;;;;;;5054959;28;20087;-69
2022/04/05 06:57:56;;;;;;;3.95;1.15;;;;;;;;;;5055549;28;20412;-69
2022/04/05 07:00:24;;;;;;;2.10;1.20;;;;;;;;;;5056759;28;20174;-69
2022/04/05 07:02:52;;;;;;;1.88;0.95;;;;;;;;;;5053050;28;20083;-69
2022/04/05 07:05:19;;;;;;;1.08;0.98;;;;;;;;;;5055418;28;20048;-69
2022/04/05 07:07:49;;;;;;;2.45;1.10;;;;;;;;;;5055117;28;20167;-69
2022/04/05 07:10:16;;;;;;;2.33;1.15;;;;;;;;;;5054567;28;20075;-70
2022/04/05 07:12:43;;;;;;;5.25;1.20;;;;;;;;;;5057387;28;20044;-69
2022/04/05 07:15:10;;;;;;;;;;;;;;;;;;5054071;28;20044;-70
2022/04/05 07:17:38;;;;;;;2.53;1.10;;;;;;;;;;5055597;28;19967;-69
2022/04/05 07:20:25;;;;;;;3.22;0.98;;;;;;;;;;5053531;28;20067;-70
2022/04/05 07:22:51;;;;;;;2.10;1.23;;;;;;;;;;5055658;28;20053;-71
2022/04/05 07:25:21;;;;;;;1.25;1.02;;;;;;;;;;5057483;28;20072;-71
2022/04/05 07:27:51;;;;;;;2.63;1.33;;;;;;;;;;5057765;28;20084;-72
2022/04/05 07:30:19;;;;;;;2.90;1.27;;;;;;;;;;5059304;28;20086;-71
2022/04/05 07:32:45;;;;;;;3.28;1.10;;;;;;;;;;5042971;28;20080;-72
2022/04/05 07:35:14;;;;;;;3.00;1.40;;;;;;;;;;5056431;28;20136;-72
2022/04/05 07:37:42;;;;;;;1.77;1.15;;;;;;;;;;5055273;28;20580;-72
2022/04/05 07:40:10;;;;;;;2.58;1.23;;;;;;;;;;5055937;28;20059;-72
2022/04/05 07:42:40;;;;;;;3.92;1.20;;;;;;;;;;5056861;28;20512;-72
2022/04/05 07:45:10;;;;;;;3.60;1.20;;;;;;;;;;5055080;28;20145;-73
2022/04/05 07:47:37;;;;;;;1.83;1.30;;;;;;;;;;5050894;28;20136;-73
2022/04/05 07:50:04;;;;;;;8.00;1.67;;;;;;;;;;5030995;28;20136;-73
2022/04/05 07:52:31;;;;;;;4.75;1.20;;;;;;;;;;5034534;28;20135;-73
2022/04/05 07:54:59;;;;;;;2.22;1.10;;;;;;;;;;5037581;28;20193;-73
2022/04/05 07:57:25;;;;;;;5.40;1.30;;;;;;;;;;5036130;28;20064;-73
2022/04/05 07:59:52;;;;;;;1.20;1.10;;;;;;;;;;5037046;28;20052;-74
2022/04/05 08:02:19;;;;;;;1.77;1.00;;;;;;;;;;5035823;28;20129;-73
2022/04/05 08:04:55;;;;;;;4.22;1.38;;;;;;;;;;5037200;28;20044;-74
2022/04/05 08:07:22;;;;;;;1.77;1.27;;;;;;;;;;5037084;28;20132;-74
2022/04/05 08:09:48;;;;;;;5.10;1.40;;;;;;;;;;5035823;28;20076;-74
2022/04/05 08:12:15;;;;;;;3.10;1.55;;;;;;;;;;5036253;28;20127;-73
2022/04/05 08:14:46;;;;;;;2.72;1.30;;;;;;;;;;5038049;28;20045;-74
2022/04/05 08:17:12;;;;;;;3.20;1.67;;;;;;;;;;5036923;28;20845;-74
2022/04/05 08:19:39;;;;;;;3.83;1.70;;;;;;;;;;5037745;28;20061;-74
2022/04/05 08:22:08;;;;;;;3.80;1.58;;;;;;;;;;5041311;28;20107;-74
2022/04/05 08:24:35;;;;;;;4.75;1.60;;;;;;;;;;5040555;28;20050;-74
2022/04/05 08:27:02;;;;;;;2.67;1.80;;;;;;;;;;5036855;28;20544;-74
2022/04/05 08:29:28;;;;;;;4.10;1.40;;;;;;;;;;5037091;28;20493;-74
2022/04/05 08:31:55;;;;;;;5.32;1.63;;;;;;;;;;5038061;28;20493;-74
2022/04/05 08:34:21;;;;;;;5.57;1.58;;;;;;;;;;5036161;28;20052;-74
2022/04/05 08:36:49;;;;;;;4.15;1.60;;;;;;;;;;5035878;28;20053;-73
2022/04/05 08:39:16;;;;;;;2.13;1.60;;;;;;;;;;5038104;28;20132;-73
2022/04/05 08:41:43;;;;;;;2.92;1.42;;;;;;;;;;5035625;28;20149;-73
2022/04/05 08:44:16;;;;;;;3.58;1.88;;;;;;;;;;5035896;28;20447;-73
2022/04/05 08:46:43;;;;;;;6.50;1.70;;;;;;;;;;5034861;28;20543;-73
2022/04/05 08:49:10;;;;;;;7.60;1.77;;;;;;;;;;5038712;28;20144;-72
2022/04/05 08:51:37;;;;;;;3.78;1.75;;;;;;;;;;5038941;28;20140;-72
2022/04/05 08:54:04;;;;;;;4.25;1.73;;;;;;;;;;5039585;28;20763;-72
2022/04/05 08:56:30;;;;;;;1.90;1.38;;;;;;;;;;5040106;28;20052;-72
2022/04/05 08:58:57;;;;;;;5.30;2.10;;;;;;;;;;5039193;28;20153;-72
2022/04/05 09:01:29;;;;;;;2.95;1.60;;;;;;;;;;5040885;28;20131;-72
2022/04/05 09:03:58;;;;;;;3.20;1.67;;;;;;;;;;5038509;28;20048;-72
2022/04/05 09:06:29;;;;;;;4.10;1.73;;;;;;;;;;5039120;28;20045;-72
2022/04/05 09:09:01;;;;;;;3.17;1.70;;;;;;;;;;5035827;28;20045;-72
2022/04/05 09:11:28;;;;;;;2.22;1.55;;;;;;;;;;5038025;28;20127;-71
2022/04/05 09:13:59;;;;;;;3.38;1.60;;;;;;;;;;5039139;28;20055;-72
2022/04/05 09:16:28;;;;;;;2.08;1.33;;;;;;;;;;5038241;28;20147;-72
2022/04/05 09:18:55;;;;;;;4.57;1.70;;;;;;;;;;5038595;28;20136;-71
2022/04/05 09:21:21;;;;;;;2.72;1.40;;;;;;;;;;5038202;28;20096;-71
2022/04/05 09:23:52;;;;;;;4.80;1.52;;;;;;;;;;5038631;28;20092;-72
2022/04/05 09:26:22;;;;;;;5.07;1.80;;;;;;;;;;5036890;28;20612;-72
2022/04/05 09:28:48;;;;;;;;;;;;;;;;;;5042319;28;20053;-72
2022/04/05 09:31:17;;;;;;;5.82;2.00;;;;;;;;;;5040363;28;19948;-72
2022/04/05 09:34:02;;;;;;;2.33;1.58;;;;;;;;;;5038993;28;20047;-72
2022/04/05 09:36:33;;;;;;;7.50;1.80;;;;;;;;;;5037877;28;20065;-72
2022/04/05 09:39:22;;;;;;;3.60;1.85;;;;;;;;;;5041231;28;20076;-72
2022/04/05 09:41:58;;;;;;;2.75;1.70;;;;;;;;;;5038520;28;20140;-73
2022/04/05 09:44:27;;;;;;;4.78;1.60;;;;;;;;;;5038024;28;20062;-72
2022/04/05 09:47:06;;;;;;;3.03;1.33;;;;;;;;;;5038935;28;20489;-73
2022/04/05 09:49:34;;;;;;;3.90;1.70;;;;;;;;;;5058784;28;20169;-73
2022/04/05 09:52:01;;;;;;;2.65;1.40;;;;;;;;;;5058357;28;20912;-73
2022/04/05 09:54:29;;;;;;;1.70;1.50;;;;;;;;;;5059106;28;20130;-73
2022/04/05 09:56:55;;;;;;;;;;;;;;;;;;5058479;28;20052;-73
2022/04/05 09:59:22;;;;;;;2.45;1.60;;;;;;;;;;5057276;28;20011;-74
2022/04/05 10:01:49;;;;;;;5.13;1.40;;;;;;;;;;5057181;28;20478;-73
2022/04/05 10:04:16;;;;;;;;;;;;;;;;;;5058442;28;20548;-74
2022/04/05 10:06:44;;;;;;;3.83;2.17;;;;;;;;;;5057917;28;20338;-74
2022/04/05 10:09:11;;;;;;;2.08;1.40;;;;;;;;;;5056929;28;20076;-75
2022/04/05 10:11:41;;;;;;;2.45;1.40;;;;;;;;;;5058538;28;20147;-75
2022/04/05 10:14:09;;;;;;;3.30;2.25;;;;;;;;;;5058430;28;20083;-76
2022/04/05 10:16:36;;;;;;;2.00;1.45;;;;;;;;;;5063120;28;20143;-75
2022/04/05 10:19:10;;;;;;;2.90;1.60;;;;;;;;;;5057923;28;20471;-76
2022/04/05 10:21:37;;;;;;;2.65;1.40;;;;;;;;;;5059024;28;20045;-76
2022/04/05 10:24:04;;;;;;;2.13;1.67;;;;;;;;;;5058763;28;20132;-77
2022/04/05 10:26:32;;;;;;;3.15;1.50;;;;;;;;;;5060092;28;20140;-77
2022/04/05 10:29:00;;;;;;;3.03;1.70;;;;;;;;;;5059092;28;20140;-77
2022/04/05 10:31:43;;;;;;;3.95;1.35;;;;;;;;;;5057258;28;20139;-77
2022/04/05 10:34:10;;;;;;;1.60;1.30;;;;;;;;;;5055450;28;20507;-77
2022/04/05 10:36:37;;;;;;;1.83;1.42;;;;;;;;;;5057607;28;20036;-78
2022/04/05 10:39:17;;;;;;;3.97;1.48;;;;;;;;;;5060193;28;20057;-79
2022/04/05 10:42:02;;;;;;;2.10;1.15;;;;;;;;;;5056241;28;20049;-78
2022/04/05 10:44:28;;;;;;;5.03;1.35;;;;;;;;;;5054705;28;20158;-79
2022/04/05 10:47:01;;;;;;;3.88;1.65;;;;;;;;;;5058156;28;20076;-78
2022/04/05 10:49:48;;;;;;;4.38;1.40;;;;;;;;;;5057571;28;20044;-78
2022/04/05 10:52:17;;;;;;;4.60;1.58;;;;;;;;;;5060884;28;20098;-78
2022/04/05 10:54:47;;;;;;;2.88;1.52;;;;;;;;;;5052101;28;20101;-79
2022/04/05 10:57:26;;;;;;;3.78;1.33;;;;;;;;;;5058466;28;20136;-79
2022/04/05 11:00:00;;;;;;;4.85;1.35;;;;;;;;;;5056004;28;20557;-79
2022/04/05 11:02:30;;;;;;;2.10;1.35;;;;;;;;;;5056658;28;20056;-78
2022/04/05 11:05:01;;;;;;;2.20;1.30;;;;;;;;;;5063032;28;20118;-79
2022/04/05 11:07:54;;;;;;;3.83;1.30;;;;;;;;;;5059471;28;20394;-78
2022/04/05 11:10:25;;;;;;;3.33;1.65;;;;;;;;;;5057008;28;20152;-78
2022/04/05 11:13:02;;;;;;;2.38;1.10;;;;;;;;;;5057928;28;20164;-79
2022/04/05 11:15:38;;;;;;;1.52;1.42;;;;;;;;;;5057704;28;20045;-79
2022/04/05 11:18:09;;;;;;;3.53;1.50;;;;;;;;;;5057441;28;20052;-79
2022/04/05 11:20:38;;;;;;;2.20;1.35;;;;;;;;;;5060807;28;20136;-78
2022/04/05 11:23:09;;;;;;;2.90;1.30;;;;;;;;;;5059845;28;20134;-78
2022/04/05 11:25:37;;;;;;;3.20;1.42;;;;;;;;;;5056582;28;20584;-77
2022/04/05 11:28:15;;;;;;;5.45;1.50;;;;;;;;;;5057481;28;20052;-78
2022/04/05 11:30:58;;;;;;;4.07;1.55;;;;;;;;;;5057885;28;20087;-78
2022/04/05 11:33:34;;;;;;;6.70;1.50;;;;;;;;;;5057531;28;20079;-78
2022/04/05 11:36:02;;;;;;;;;;;;;;;;;;5057953;28;20179;-78
2022/04/05 11:38:48;;;;;;;2.55;1.60;;;;;;;;;;5058438;28;20375;-77
2022/04/05 11:41:26;;;;;;;2.92;1.40;;;;;;;;;;5057102;28;20135;-77
2022/04/05 11:43:57;;;;;;;3.78;1.30;;;;;;;;;;5056788;28;20045;-77
2022/04/05 11:46:37;;;;;;;1.65;1.30;;;;;;;;;;5056212;28;20131;-77
2022/04/05 11:49:05;;;;;;;1.55;1.30;;;;;;;;;;5041281;28;20111;-77
2022/04/05 11:51:34;;;;;;;;;;;;;;;;;;5037308;28;20081;-77
2022/04/05 11:54:06;;;;;;;2.97;1.63;;;;;;;;;;5037292;28;20036;-77
2022/04/05 11:56:34;;;;;;;3.80;1.55;;;;;;;;;;5035361;28;20084;-76
2022/04/05 11:59:02;;;;;;;1.77;1.30;;;;;;;;;;5037248;28;20076;-76
2022/04/05 12:01:29;;;;;;;2.55;1.30;;;;;;;;;;5037487;28;20127;-77
2022/04/05 12:04:05;;;;;;;2.97;1.45;;;;;;;;;;5037349;28;20132;-77
2022/04/05 12:06:39;;;;;;;4.10;1.70;;;;;;;;;;5038468;28;20469;-77
2022/04/05 12:09:13;;;;;;;3.45;1.20;;;;;;;;;;5036903;28;20049;-77
2022/04/05 12:11:40;;;;;;;3.03;1.27;;;;;;;;;;5037452;28;20115;-75
2022/04/05 12:14:11;;;;;;;6.25;1.38;;;;;;;;;;5039301;28;20141;-76
2022/04/05 12:16:51;;;;;;;1.77;1.35;;;;;;;;;;5038658;28;20045;-75
2022/04/05 12:19:18;;;;;;;5.97;1.52;;;;;;;;;;5037784;28;20588;-76
2022/04/05 12:21:55;;;;;;;2.50;1.50;;;;;;;;;;5037957;28;20073;-76
2022/04/05 12:24:22;;;;;;;4.25;1.45;;;;;;;;;;5036970;28;20044;-76
2022/04/05 12:26:48;;;;;;;3.95;1.63;;;;;;;;;;5036960;28;20207;-76
2022/04/05 12:29:15;;;;;;;4.57;1.60;;;;;;;;;;5036866;28;20056;-76
2022/04/05 12:31:42;;;;;;;4.13;1.60;;;;;;;;;;5035915;28;20055;-76
2022/04/05 12:34:11;;;;;;;5.72;1.48;;;;;;;;;;5035623;28;20041;-76
2022/04/05 12:36:42;;;;;;;2.33;1.40;;;;;;;;;;5033983;28;20071;-75
2022/04/05 12:39:20;;;;;;;2.78;1.67;;;;;;;;;;5018885;28;20160;-77
2022/04/05 12:41:48;;;;;;;1.95;1.25;;;;;;;;;;5039320;28;20049;-75
2022/04/05 12:44:18;;;;;;;4.65;1.52;;;;;;;;;;5039820;28;20059;-75
2022/04/05 12:46:49;;;;;;;2.03;1.05;;;;;;;;;;5040392;28;20041;-75
2022/04/05 12:49:21;;;;;;;2.85;1.15;;;;;;;;;;5057248;28;20092;-75
2022/04/05 12:52:07;;;;;;;2.72;1.45;;;;;;;;;;5058860;28;20147;-74
2022/04/05 12:54:35;;;;;;;2.70;1.20;;;;;;;;;;5057381;28;20084;-74
2022/04/05 12:57:19;;;;;;;2.55;1.67;;;;;;;;;;5058925;28;20088;-74
2022/04/05 12:59:47;;;;;;;4.03;1.25;;;;;;;;;;5058041;28;20091;-74
2022/04/05 13:02:28;;;;;;;3.70;1.42;;;;;;;;;;5056817;28;20167;-75
2022/04/05 13:06:20;;;;;;;4.38;1.30;;;;;;;;;;5059190;28;20515;-74
2022/04/05 13:07:56;;;;;;;2.00;1.00;;;;;;;;;;5057648;28;20053;-74
2022/04/05 13:10:32;;;;;;;2.92;1.10;;;;;;;;;;5059917;28;20567;-74
2022/04/05 13:13:12;;;;;;;1.20;1.10;;;;;;;;;;5058554;28;20060;-73
2022/04/05 13:15:40;;;;;;;2.33;1.30;;;;;;;;;;5058212;28;20044;-72
2022/04/05 13:18:08;;;;;;;5.85;1.52;;;;;;;;;;5059099;28;20052;-74
2022/04/05 13:20:34;;;;;;;4.40;1.30;;;;;;;;;;5057793;28;20140;-74
2022/04/05 13:23:01;;;;;;;1.58;1.10;;;;;;;;;;5053891;28;20131;-74
2022/04/05 13:25:38;;;;;;;2.22;1.30;;;;;;;;;;5056470;28;20068;-74
2022/04/05 13:28:05;;;;;;;4.63;1.05;;;;;;;;;;5057349;28;20178;-73
2022/04/05 13:30:42;;;;;;;1.92;1.20;;;;;;;;;;5061009;28;20132;-73
2022/04/05 13:33:09;;;;;;;1.50;1.13;;;;;;;;;;5057556;28;20097;-73
2022/04/05 13:35:36;;;;;;;1.97;1.10;;;;;;;;;;5056594;28;20127;-73
2022/04/05 13:38:02;;;;;;;3.25;1.45;;;;;;;;;;5055804;28;20054;-73
2022/04/05 13:40:29;;;;;;;3.63;1.30;;;;;;;;;;5057246;28;20136;-73
2022/04/05 13:42:56;;;;;;;3.55;1.02;;;;;;;;;;5058731;28;20060;-73
2022/04/05 13:45:22;;;;;;;2.80;1.10;;;;;;;;;;5055174;28;20129;-73
2022/04/05 13:47:49;;;;;;;3.92;1.20;;;;;;;;;;5056402;28;20048;-73
2022/04/05 13:50:20;;;;;;;3.33;1.17;;;;;;;;;;5056402;28;20132;-73
2022/04/05 13:52:46;;;;;;;2.35;1.23;;;;;;;;;;5058978;28;20115;-73
2022/04/05 13:55:13;;;;;;;2.42;0.95;;;;;;;;;;5056598;28;20156;-73
2022/04/05 13:57:39;;;;;;;3.20;1.60;;;;;;;;;;5061170;28;20080;-73
2022/04/05 14:00:06;;;;;;;2.08;1.13;;;;;;;;;;5061162;28;20132;-73
2022/04/05 14:02:33;;;;;;;1.75;1.23;;;;;;;;;;5054434;28;20152;-73
2022/04/05 14:05:02;;;;;;;3.00;1.25;;;;;;;;;;5060735;28;20789;-74
2022/04/05 14:07:28;;;;;;;1.65;0.90;;;;;;;;;;5057464;28;20087;-73
2022/04/05 14:09:55;;;;;;;1.65;1.05;;;;;;;;;;5059917;28;20577;-73
2022/04/05 14:12:21;;;;;;;1.90;0.90;;;;;;;;;;5061605;28;20725;-73
2022/04/05 14:14:52;;;;;;;4.10;1.05;;;;;;;;;;5054828;28;20049;-72
2022/04/05 14:17:19;;;;;;;1.65;0.98;;;;;;;;;;5058260;28;20048;-72
2022/04/05 14:19:52;;;;;;;3.47;1.00;;;;;;;;;;5062235;28;20106;-72
2022/04/05 14:22:18;;;;;;;5.03;0.90;;;;;;;;;;5056371;28;20135;-72
2022/04/05 14:24:45;;;;;;;2.35;0.98;;;;;;;;;;5055236;28;20048;-72
2022/04/05 14:27:18;;;;;;;5.00;1.10;;;;;;;;;;5057592;28;20056;-73
2022/04/05 14:29:44;;;;;;;2.15;1.38;;;;;;;;;;5055989;28;20098;-72
2022/04/05 14:32:12;;;;;;;5.50;1.42;;;;;;;;;;5057822;28;20080;-72
2022/04/05 14:34:46;;;;;;;1.17;0.82;;;;;;;;;;5061067;28;20098;-72
2022/04/05 14:37:12;;;;;;;1.90;1.08;;;;;;;;;;5054053;28;20459;-72
2022/04/05 14:39:39;;;;;;;5.53;1.42;;;;;;;;;;5055644;28;20153;-72
2022/04/05 14:42:05;;;;;;;2.38;1.30;;;;;;;;;;5054983;28;20068;-72
2022/04/05 14:44:34;;;;;;;3.22;1.20;;;;;;;;;;5056072;28;20048;-72
2022/04/05 14:47:01;;;;;;;3.47;1.40;;;;;;;;;;5056881;28;20123;-72
2022/04/05 14:49:28;;;;;;;2.35;1.20;;;;;;;;;;5055265;28;20110;-72
2022/04/05 14:51:54;;;;;;;7.03;1.33;;;;;;;;;;5056717;28;20059;-72
2022/04/05 14:54:21;;;;;;;2.92;1.50;;;;;;;;;;5056457;28;20175;-71
2022/04/05 14:56:48;;;;;;;1.17;0.88;;;;;;;;;;5056380;28;20459;-71